Time;durP1;ratioP1;P1;durP2;ratioP2;P2;SDS_P1;SDS_P2;PMS_P1;PMS_P2;Temp;Humidity;BMP_temperature;BMP_pressure;BME280_temperature;BME280_humidity;BME280_pressure;Samples;Min_cycle;Max_cycle;Signal;HPM_P1;HPM_P2
2021/06/07 00:01:28;;;;;;;14.47;13.00;;;17.60;99.90;;;;;;4999529;28;20449;-87
2021/06/07 00:03:57;;;;;;;14.73;12.60;;;17.50;99.90;;;;;;5007286;28;20815;-86
2021/06/07 00:06:30;;;;;;;13.60;11.93;;;17.50;99.90;;;;;;5002329;28;20438;-86
2021/06/07 00:08:59;;;;;;;12.30;11.00;;;17.40;99.90;;;;;;5009804;28;20459;-87
2021/06/07 00:11:28;;;;;;;15.10;12.17;;;17.40;99.90;;;;;;5019300;28;20431;-86
2021/06/07 00:13:56;;;;;;;17.60;11.87;;;17.30;99.90;;;;;;5011544;28;21046;-86
2021/06/07 00:16:22;;;;;;;14.03;12.37;;;17.30;99.90;;;;;;5002691;28;20443;-87
2021/06/07 00:18:50;;;;;;;13.43;12.03;;;17.30;99.90;;;;;;5016691;28;20464;-85
2021/06/07 00:21:21;;;;;;;14.77;13.27;;;17.30;99.90;;;;;;5001209;28;20441;-86
2021/06/07 00:23:55;;;;;;;13.77;12.10;;;17.30;99.90;;;;;;5010207;28;20440;-86
2021/06/07 00:26:24;;;;;;;14.33;12.07;;;17.40;99.90;;;;;;4997610;28;20446;-86
2021/06/07 00:28:52;;;;;;;13.73;11.80;;;17.40;99.90;;;;;;5019715;28;20920;-86
2021/06/07 00:31:21;;;;;;;13.30;12.00;;;17.50;99.90;;;;;;5009640;28;20430;-87
2021/06/07 00:33:49;;;;;;;14.20;12.80;;;17.40;99.90;;;;;;5014700;28;20881;-87
2021/06/07 00:36:22;;;;;;;15.03;13.00;;;17.40;99.90;;;;;;5018973;28;20440;-86
2021/06/07 00:38:52;;;;;;;13.70;12.30;;;17.40;99.90;;;;;;5004297;28;20428;-85
2021/06/07 00:41:21;;;;;;;16.07;14.40;;;17.40;99.90;;;;;;5027169;28;20497;-87
2021/06/07 00:43:58;;;;;;;15.43;13.17;;;17.30;99.90;;;;;;5017501;28;20482;-87
2021/06/07 00:46:28;;;;;;;14.27;12.80;;;17.30;99.90;;;;;;5014269;28;20483;-86
2021/06/07 00:48:57;;;;;;;19.13;13.90;;;17.30;99.90;;;;;;5008558;28;20455;-86
2021/06/07 00:51:23;;;;;;;16.63;15.03;;;17.30;99.90;;;;;;5017128;28;20439;-87
2021/06/07 00:53:54;;;;;;;15.60;13.23;;;17.30;99.90;;;;;;5011682;28;20476;-87
2021/06/07 00:56:21;;;;;;;15.10;13.30;;;17.30;99.90;;;;;;5013025;28;20491;-86
2021/06/07 00:58:49;;;;;;;15.40;13.23;;;17.20;99.90;;;;;;5015186;28;20940;-87
2021/06/07 01:01:20;;;;;;;16.33;14.40;;;17.20;99.90;;;;;;5018806;28;20447;-87
2021/06/07 01:03:48;;;;;;;15.20;12.80;;;17.30;99.90;;;;;;5025529;28;20465;-86
2021/06/07 01:06:15;;;;;;;14.93;13.37;;;17.30;99.90;;;;;;5016577;28;20787;-88
2021/06/07 01:08:44;;;;;;;15.27;13.67;;;17.30;99.90;;;;;;5006204;28;20512;-86
2021/06/07 01:11:13;;;;;;;16.23;14.40;;;17.40;99.90;;;;;;5046221;28;20430;-86
2021/06/07 01:13:43;;;;;;;14.97;13.10;;;17.40;99.90;;;;;;4997505;28;20854;-87
2021/06/07 01:16:14;;;;;;;15.27;13.60;;;17.30;99.90;;;;;;5008065;28;20502;-86
2021/06/07 01:18:41;;;;;;;19.07;14.60;;;17.30;99.90;;;;;;4997299;28;20448;-86
2021/06/07 01:21:13;;;;;;;18.50;14.30;;;17.30;99.90;;;;;;5035932;28;20448;-85
2021/06/07 01:23:41;;;;;;;17.43;14.40;;;17.30;99.90;;;;;;5001211;28;20509;-87
2021/06/07 01:26:09;;;;;;;15.23;13.73;;;17.30;99.90;;;;;;5018379;28;20432;-86
2021/06/07 01:28:39;;;;;;;18.57;13.97;;;17.30;99.90;;;;;;5030620;28;20495;-87
2021/06/07 01:31:06;;;;;;;17.07;14.80;;;17.30;99.90;;;;;;5015733;28;20431;-86
2021/06/07 01:33:39;;;;;;;20.50;15.53;;;17.30;99.90;;;;;;5024285;28;20660;-86
2021/06/07 01:36:06;;;;;;;16.13;14.43;;;17.30;99.90;;;;;;5027352;28;20441;-86
2021/06/07 01:38:35;;;;;;;16.33;14.70;;;17.40;99.90;;;;;;5011158;28;20755;-87
2021/06/07 01:41:04;;;;;;;15.37;13.20;;;17.40;99.90;;;;;;5002987;28;20446;-87
2021/06/07 01:43:34;;;;;;;17.17;14.47;;;17.40;99.90;;;;;;5020203;28;20447;-87
2021/06/07 01:46:00;;;;;;;21.70;15.90;;;17.40;99.90;;;;;;4989688;28;20439;-87
2021/06/07 01:48:29;;;;;;;18.03;15.07;;;17.40;99.90;;;;;;5002851;28;20447;-86
2021/06/07 01:50:58;;;;;;;16.87;15.07;;;17.40;99.90;;;;;;5010759;28;20451;-87
2021/06/07 01:53:26;;;;;;;15.60;14.00;;;17.30;99.90;;;;;;5013565;28;20567;-85
2021/06/07 01:55:57;;;;;;;20.97;15.90;;;17.40;99.90;;;;;;5029005;28;20660;-87
2021/06/07 01:58:25;;;;;;;18.37;14.60;;;17.30;99.90;;;;;;5018193;28;20432;-87
2021/06/07 02:01:10;;;;;;;17.03;14.17;;;17.30;99.90;;;;;;5015953;28;20459;-87
2021/06/07 02:03:39;;;;;;;16.97;15.20;;;17.30;99.90;;;;;;4993568;28;20788;-86
2021/06/07 02:06:09;;;;;;;19.73;15.87;;;17.30;99.90;;;;;;5015939;28;20496;-86
2021/06/07 02:08:35;;;;;;;18.10;16.07;;;17.20;99.90;;;;;;5012987;28;20825;-87
2021/06/07 02:11:06;;;;;;;19.70;17.07;;;17.20;99.90;;;;;;5017224;28;20447;-87
2021/06/07 02:13:35;;;;;;;19.13;17.10;;;17.20;99.90;;;;;;5010961;28;20490;-86
2021/06/07 02:16:07;;;;;;;19.27;16.93;;;17.20;99.90;;;;;;5017304;28;20449;-87
2021/06/07 02:18:36;;;;;;;19.07;17.03;;;17.20;99.90;;;;;;5009441;28;20444;-86
2021/06/07 02:21:04;;;;;;;20.17;17.27;;;17.20;99.90;;;;;;5002324;28;20432;-87
2021/06/07 02:23:30;;;;;;;22.60;18.30;;;17.20;99.90;;;;;;5016320;28;20440;-87
2021/06/07 02:25:58;;;;;;;26.73;19.27;;;17.20;99.90;;;;;;5009597;28;20442;-87
2021/06/07 02:28:27;;;;;;;20.97;17.73;;;17.10;99.90;;;;;;5016669;28;20529;-87
2021/06/07 02:30:53;;;;;;;21.50;19.07;;;17.20;99.90;;;;;;5015615;28;20809;-87
2021/06/07 02:33:20;;;;;;;22.77;18.90;;;17.20;99.90;;;;;;5021659;28;20948;-86
2021/06/07 02:35:46;;;;;;;23.43;20.00;;;17.20;99.90;;;;;;5016923;28;20436;-87
2021/06/07 02:38:14;;;;;;;25.23;20.10;;;17.20;99.90;;;;;;5020939;28;20786;-87
2021/06/07 02:40:43;;;;;;;20.20;17.07;;;17.20;99.90;;;;;;5018857;28;20833;-87
2021/06/07 02:43:09;;;;;;;22.80;17.53;;;17.20;99.90;;;;;;5027795;28;20423;-86
2021/06/07 02:45:41;;;;;;;21.00;18.00;;;17.20;99.90;;;;;;5019014;28;20471;-87
2021/06/07 02:48:08;;;;;;;25.40;19.33;;;17.20;99.90;;;;;;5019396;28;20426;-86
2021/06/07 02:50:38;;;;;;;22.40;18.53;;;17.30;99.90;;;;;;5004966;28;20454;-87
2021/06/07 02:53:05;;;;;;;20.10;17.97;;;17.20;99.90;;;;;;5012140;28;20474;-87
2021/06/07 02:55:44;;;;;;;28.10;19.10;;;17.20;99.90;;;;;;5013477;28;20435;-87
2021/06/07 02:58:10;;;;;;;21.10;18.60;;;17.20;99.90;;;;;;5029145;28;20517;-86
2021/06/07 03:00:47;;;;;;;22.73;17.73;;;17.20;99.90;;;;;;5034187;28;20447;-87
2021/06/07 03:03:14;;;;;;;21.83;18.20;;;17.20;99.90;;;;;;5018915;28;20930;-86
2021/06/07 03:05:42;;;;;;;23.60;18.50;;;17.20;99.90;;;;;;5033825;28;20493;-86
2021/06/07 03:08:13;;;;;;;20.40;18.33;;;17.20;99.90;;;;;;5025312;28;20786;-86
2021/06/07 03:10:44;;;;;;;20.00;17.90;;;17.20;99.90;;;;;;5018482;28;20961;-87
2021/06/07 03:13:12;;;;;;;20.87;18.67;;;17.20;99.90;;;;;;5025676;28;21097;-86
2021/06/07 03:15:38;;;;;;;26.43;18.73;;;17.20;99.90;;;;;;5020856;28;20434;-87
2021/06/07 03:18:06;;;;;;;23.73;18.13;;;17.20;99.90;;;;;;5018646;28;20915;-87
2021/06/07 03:20:34;;;;;;;23.93;19.57;;;17.20;99.90;;;;;;5017898;28;20423;-87
2021/06/07 03:23:10;;;;;;;22.83;19.10;;;17.20;99.90;;;;;;5012730;28;20980;-87
2021/06/07 03:25:36;;;;;;;24.73;19.60;;;17.10;99.90;;;;;;5003111;28;20439;-87
2021/06/07 03:28:05;;;;;;;23.80;19.10;;;17.10;99.90;;;;;;5018105;28;20847;-87
2021/06/07 03:30:31;;;;;;;28.73;19.27;;;17.10;99.90;;;;;;5010160;28;20469;-85
2021/06/07 03:33:00;;;;;;;26.00;20.97;;;17.00;99.90;;;;;;5029088;28;20886;-86
2021/06/07 03:35:28;;;;;;;25.13;20.17;;;17.00;99.90;;;;;;5006217;28;20427;-86
2021/06/07 03:37:56;;;;;;;27.10;20.17;;;16.90;99.90;;;;;;5006603;28;20431;-86
2021/06/07 03:40:26;;;;;;;27.33;20.80;;;16.90;99.90;;;;;;5010252;28;20923;-87
2021/06/07 03:42:55;;;;;;;27.10;21.00;;;16.80;99.90;;;;;;4994669;28;20483;-86
2021/06/07 03:45:26;;;;;;;26.10;19.30;;;16.80;99.90;;;;;;5011896;28;20524;-85
2021/06/07 03:47:55;;;;;;;23.47;19.60;;;16.80;99.90;;;;;;5006405;28;20872;-86
2021/06/07 03:50:27;;;;;;;30.40;19.87;;;16.80;99.90;;;;;;5033154;28;20426;-85
2021/06/07 03:52:53;;;;;;;31.30;20.70;;;16.80;99.90;;;;;;5014395;28;20501;-87
2021/06/07 03:55:21;;;;;;;29.23;20.33;;;16.80;99.90;;;;;;5013867;28;20866;-86
2021/06/07 03:57:48;;;;;;;25.77;19.97;;;16.80;99.90;;;;;;5007149;28;20526;-86
2021/06/07 04:00:17;;;;;;;27.50;18.90;;;16.70;99.90;;;;;;4999662;28;20760;-86
2021/06/07 04:02:45;;;;;;;25.70;19.77;;;16.80;99.90;;;;;;5024268;28;20443;-86
2021/06/07 04:05:13;;;;;;;29.07;21.67;;;16.90;99.90;;;;;;5011160;28;20462;-87
2021/06/07 04:07:39;;;;;;;29.10;19.70;;;16.80;99.90;;;;;;5040146;28;20456;-86
2021/06/07 04:10:09;;;;;;;22.07;19.30;;;16.80;99.90;;;;;;5004995;28;20427;-86
2021/06/07 04:12:37;;;;;;;24.57;19.37;;;16.80;99.90;;;;;;5012288;28;20439;-87
2021/06/07 04:15:06;;;;;;;21.40;18.90;;;16.80;99.90;;;;;;5001909;28;20784;-87
2021/06/07 04:17:32;;;;;;;27.10;20.17;;;16.70;99.90;;;;;;5001989;28;20455;-86
2021/06/07 04:19:58;;;;;;;26.97;19.80;;;16.70;99.90;;;;;;5001797;28;20490;-87
2021/06/07 04:22:26;;;;;;;24.27;19.63;;;16.70;99.90;;;;;;5001376;28;20443;-86
2021/06/07 04:24:52;;;;;;;28.70;20.67;;;16.70;99.90;;;;;;5010548;28;20540;-86
2021/06/07 04:27:21;;;;;;;24.07;19.20;;;16.70;99.90;;;;;;5026201;28;20450;-86
2021/06/07 04:29:48;;;;;;;26.80;19.83;;;16.70;99.90;;;;;;5017826;28;20750;-87
2021/06/07 04:32:17;;;;;;;28.50;21.93;;;16.80;99.90;;;;;;5012358;28;20783;-86
2021/06/07 04:34:45;;;;;;;23.30;19.30;;;16.80;99.90;;;;;;5048501;28;20803;-87
2021/06/07 04:37:11;;;;;;;22.80;20.40;;;16.70;99.90;;;;;;5035282;28;20422;-87
2021/06/07 04:39:40;;;;;;;22.30;18.97;;;16.70;99.90;;;;;;5046829;28;20509;-85
2021/06/07 04:42:07;;;;;;;24.63;21.10;;;16.70;99.90;;;;;;5037424;28;20499;-87
2021/06/07 04:44:38;;;;;;;34.50;21.57;;;16.80;99.90;;;;;;5017849;28;20498;-86
2021/06/07 04:47:04;;;;;;;26.20;21.30;;;16.80;99.90;;;;;;5032564;28;20457;-87
2021/06/07 04:49:30;;;;;;;24.07;20.27;;;16.90;99.90;;;;;;5020207;28;20789;-87
2021/06/07 04:51:58;;;;;;;27.03;21.00;;;16.90;99.90;;;;;;5030836;28;20959;-86
2021/06/07 04:54:24;;;;;;;28.60;20.97;;;17.00;99.90;;;;;;5037902;28;20481;-88
2021/06/07 04:56:50;;;;;;;26.40;22.63;;;17.10;99.90;;;;;;5026684;28;20462;-86
2021/06/07 04:59:16;;;;;;;25.17;22.33;;;17.10;99.90;;;;;;5018821;28;20478;-86
2021/06/07 05:01:42;;;;;;;25.00;20.90;;;17.10;99.90;;;;;;5029750;28;20419;-86
2021/06/07 05:04:08;;;;;;;27.83;23.13;;;17.10;99.90;;;;;;5018212;28;20194;-85
2021/06/07 05:06:36;;;;;;;29.57;23.30;;;17.20;99.90;;;;;;5028447;28;20470;-86
2021/06/07 05:09:03;;;;;;;29.67;23.63;;;17.10;99.90;;;;;;5025389;28;20529;-87
2021/06/07 05:11:32;;;;;;;31.60;22.17;;;17.20;99.90;;;;;;5017778;28;20481;-87
2021/06/07 05:13:58;;;;;;;32.40;25.23;;;17.20;99.90;;;;;;5033391;28;20565;-87
2021/06/07 05:16:24;;;;;;;30.50;24.17;;;17.20;99.90;;;;;;5016201;28;20544;-86
2021/06/07 05:18:50;;;;;;;29.40;23.60;;;17.20;99.90;;;;;;5034572;28;20500;-86
2021/06/07 05:21:16;;;;;;;32.57;24.07;;;17.10;99.90;;;;;;5037807;28;20731;-86
2021/06/07 05:23:44;;;;;;;30.80;25.17;;;17.30;99.90;;;;;;5037954;28;20475;-87
2021/06/07 05:26:11;;;;;;;39.90;29.17;;;17.30;99.90;;;;;;5036150;28;20785;-86
2021/06/07 05:28:39;;;;;;;43.20;29.67;;;17.30;99.90;;;;;;5041186;28;20507;-86
2021/06/07 05:31:07;;;;;;;43.83;30.87;;;17.40;99.90;;;;;;5067249;28;21094;-86
2021/06/07 05:33:38;;;;;;;40.27;31.60;;;17.30;99.90;;;;;;5046037;28;20470;-87
2021/06/07 05:36:04;;;;;;;43.80;29.43;;;17.30;99.90;;;;;;5013960;28;20425;-86
2021/06/07 05:38:30;;;;;;;41.33;30.73;;;17.30;99.90;;;;;;5011930;28;20434;-86
2021/06/07 05:40:59;;;;;;;40.87;28.33;;;17.30;99.90;;;;;;5030717;28;20440;-87
2021/06/07 05:43:27;;;;;;;38.40;29.97;;;17.30;99.90;;;;;;5053515;28;20446;-86
2021/06/07 05:45:54;;;;;;;35.30;27.30;;;17.40;99.90;;;;;;5008582;28;20444;-82
2021/06/07 05:48:19;;;;;;;36.43;28.53;;;17.50;99.90;;;;;;5039441;28;20443;-83
2021/06/07 05:50:47;;;;;;;41.13;29.50;;;17.60;99.90;;;;;;5035114;28;20461;-82
2021/06/07 05:53:18;;;;;;;32.67;28.47;;;17.60;99.90;;;;;;5047053;28;20480;-82
2021/06/07 05:55:45;;;;;;;36.27;27.07;;;17.70;99.90;;;;;;5049915;28;20485;-83
2021/06/07 05:58:18;;;;;;;34.10;26.77;;;17.70;99.90;;;;;;5035844;28;20439;-83
2021/06/07 06:00:50;;;;;;;32.40;25.57;;;17.70;99.90;;;;;;5042156;28;20479;-83
2021/06/07 06:03:17;;;;;;;33.37;27.07;;;17.70;99.90;;;;;;5043976;28;20440;-82
2021/06/07 06:05:48;;;;;;;30.37;27.07;;;17.80;99.90;;;;;;5034949;28;20834;-82
2021/06/07 06:08:18;;;;;;;32.20;26.70;;;17.70;99.90;;;;;;5044399;28;20510;-82
2021/06/07 06:10:46;;;;;;;33.80;25.47;;;17.70;99.90;;;;;;5041444;28;20893;-83
2021/06/07 06:13:12;;;;;;;27.97;24.53;;;17.70;99.90;;;;;;5043002;28;20512;-82
2021/06/07 06:15:38;;;;;;;31.53;25.50;;;17.70;99.90;;;;;;5034965;28;20799;-82
2021/06/07 06:18:07;;;;;;;31.67;25.33;;;17.80;99.90;;;;;;5039093;28;20447;-83
2021/06/07 06:20:33;;;;;;;32.40;24.67;;;17.70;99.90;;;;;;5037959;28;21065;-83
2021/06/07 06:22:59;;;;;;;32.17;25.50;;;17.70;99.90;;;;;;5049079;28;20892;-82
2021/06/07 06:25:28;;;;;;;30.43;25.03;;;17.70;99.90;;;;;;5043276;28;20528;-81
2021/06/07 06:27:58;;;;;;;37.70;26.07;;;17.70;99.90;;;;;;5040322;28;20447;-85
2021/06/07 06:30:26;;;;;;;32.10;25.57;;;17.80;99.90;;;;;;5039819;28;20452;-83
2021/06/07 06:32:56;;;;;;;27.80;23.60;;;17.80;99.90;;;;;;5048322;28;20535;-82
2021/06/07 06:35:23;;;;;;;31.10;25.60;;;17.70;99.90;;;;;;5033705;28;20522;-82
2021/06/07 06:37:50;;;;;;;34.37;26.80;;;17.80;99.90;;;;;;5040727;28;20518;-83
2021/06/07 06:40:22;;;;;;;35.87;28.30;;;17.80;99.90;;;;;;5043785;28;20434;-83
2021/06/07 06:42:51;;;;;;;42.97;34.87;;;17.90;99.90;;;;;;5041604;28;20870;-83
2021/06/07 06:45:20;;;;;;;47.93;35.83;;;17.90;99.90;;;;;;5048790;28;20543;-81
2021/06/07 06:47:47;;;;;;;48.53;37.80;;;18.10;99.90;;;;;;5033212;28;20432;-80
2021/06/07 06:50:14;;;;;;;49.47;37.97;;;18.10;99.90;;;;;;5024550;28;20451;-80
2021/06/07 06:52:41;;;;;;;51.33;39.27;;;18.10;99.90;;;;;;5042821;28;20489;-80
2021/06/07 06:55:07;;;;;;;49.73;37.27;;;18.10;99.90;;;;;;5037644;28;20486;-81
2021/06/07 06:57:34;;;;;;;50.97;37.83;;;18.10;99.90;;;;;;5027980;28;20437;-81
2021/06/07 07:00:05;;;;;;;55.20;42.13;;;18.10;99.90;;;;;;5030816;28;20440;-81
2021/06/07 07:02:34;;;;;;;55.43;41.13;;;18.10;99.90;;;;;;5018305;28;20461;-81
2021/06/07 07:05:04;;;;;;;54.17;40.30;;;18.20;99.90;;;;;;5025260;28;20429;-80
2021/06/07 07:07:30;;;;;;;53.40;41.60;;;18.10;99.90;;;;;;5033292;28;20455;-81
2021/06/07 07:09:56;;;;;;;48.27;39.57;;;18.10;99.90;;;;;;5046558;28;20814;-83
2021/06/07 07:12:26;;;;;;;52.80;40.67;;;18.00;99.90;;;;;;5030919;28;20544;-83
2021/06/07 07:14:55;;;;;;;53.77;41.77;;;18.00;99.90;;;;;;5025645;28;20791;-84
2021/06/07 07:17:21;;;;;;;49.83;40.70;;;18.00;99.90;;;;;;5050782;28;20430;-84
2021/06/07 07:19:47;;;;;;;52.43;40.80;;;18.10;99.90;;;;;;5037618;28;20451;-81
2021/06/07 07:22:15;;;;;;;46.07;39.20;;;18.20;99.90;;;;;;5052220;28;20466;-82
2021/06/07 07:24:44;;;;;;;49.37;39.37;;;18.30;99.90;;;;;;5037388;28;20446;-82
2021/06/07 07:27:13;;;;;;;53.43;39.30;;;18.60;99.90;;;;;;5017647;28;20470;-82
2021/06/07 07:29:42;;;;;;;45.60;37.67;;;18.80;99.90;;;;;;5029745;28;20515;-82
2021/06/07 07:32:09;;;;;;;48.90;39.27;;;18.90;99.90;;;;;;5033792;28;20785;-82
2021/06/07 07:34:40;;;;;;;47.40;38.13;;;19.10;99.90;;;;;;5020155;28;20504;-83
2021/06/07 07:37:09;;;;;;;46.20;38.40;;;19.20;99.90;;;;;;5018648;28;20446;-82
2021/06/07 07:39:38;;;;;;;46.97;37.70;;;19.30;99.90;;;;;;5009354;28;20444;-84
2021/06/07 07:42:06;;;;;;;43.63;38.30;;;19.40;99.90;;;;;;5010031;28;20904;-85
2021/06/07 07:44:35;;;;;;;44.50;38.30;;;19.40;99.90;;;;;;5011536;28;20494;-85
2021/06/07 07:47:02;;;;;;;44.37;37.37;;;19.30;99.90;;;;;;5028959;28;20483;-83
2021/06/07 07:49:28;;;;;;;44.90;38.57;;;19.20;99.90;;;;;;5022359;28;20434;-83
2021/06/07 07:51:57;;;;;;;47.07;40.83;;;19.20;99.90;;;;;;5048190;28;20456;-83
2021/06/07 07:54:25;;;;;;;46.60;39.53;;;19.10;99.90;;;;;;5046111;28;20481;-83
2021/06/07 07:56:53;;;;;;;48.30;38.10;;;19.10;99.90;;;;;;5054055;28;20517;-82
2021/06/07 07:59:19;;;;;;;51.00;40.47;;;19.10;99.90;;;;;;5053512;28;20525;-84
2021/06/07 08:01:45;;;;;;;48.73;40.23;;;19.10;99.90;;;;;;5047482;28;20436;-85
2021/06/07 08:04:11;;;;;;;45.17;38.13;;;19.10;99.90;;;;;;5019880;28;20456;-82
2021/06/07 08:06:37;;;;;;;55.27;41.50;;;19.00;99.90;;;;;;5021465;28;20499;-82
2021/06/07 08:09:04;;;;;;;47.43;39.27;;;19.00;99.90;;;;;;5019659;28;20771;-80
2021/06/07 08:11:30;;;;;;;48.90;40.60;;;19.00;99.90;;;;;;5034973;28;20538;-79
2021/06/07 08:13:58;;;;;;;49.43;39.80;;;19.10;99.90;;;;;;5041674;28;20524;-81
2021/06/07 08:16:24;;;;;;;41.17;36.30;;;19.20;99.90;;;;;;5032663;28;20430;-81
2021/06/07 08:18:53;;;;;;;43.30;38.60;;;19.40;99.90;;;;;;5047184;28;20824;-88
2021/06/07 08:21:19;;;;;;;40.73;35.10;;;19.50;99.90;;;;;;5016310;28;20536;-84
2021/06/07 08:23:50;;;;;;;42.40;36.20;;;19.70;99.90;;;;;;5036817;28;20538;-84
2021/06/07 08:26:18;;;;;;;49.17;37.90;;;19.90;99.90;;;;;;5031387;28;20445;-84
2021/06/07 08:28:44;;;;;;;40.30;35.93;;;19.90;99.90;;;;;;5044590;28;21034;-85
2021/06/07 08:31:10;;;;;;;48.63;38.63;;;19.80;99.90;;;;;;5038458;28;20564;-81
2021/06/07 08:33:36;;;;;;;42.73;36.40;;;19.80;99.90;;;;;;5030060;28;20568;-82
2021/06/07 08:36:05;;;;;;;43.10;37.60;;;19.80;99.90;;;;;;5016296;28;20916;-81
2021/06/07 08:38:32;;;;;;;41.10;36.90;;;19.80;99.90;;;;;;5029883;28;20523;-84
2021/06/07 08:40:58;;;;;;;39.93;35.87;;;19.70;99.90;;;;;;5021624;28;20439;-83
2021/06/07 08:43:25;;;;;;;38.60;34.60;;;19.70;99.90;;;;;;5025840;28;20784;-85
2021/06/07 08:45:51;;;;;;;38.77;34.60;;;19.70;99.90;;;;;;5048647;28;21799;-83
2021/06/07 08:48:21;;;;;;;34.63;31.23;;;19.80;99.90;;;;;;5034059;28;20454;-83
2021/06/07 08:50:47;;;;;;;34.93;31.33;;;19.80;99.90;;;;;;5034206;28;20919;-82
2021/06/07 08:53:16;;;;;;;33.43;29.93;;;19.80;99.90;;;;;;5040058;28;20501;-83
2021/06/07 08:55:42;;;;;;;33.30;30.10;;;19.90;99.90;;;;;;5036242;28;20469;-80
2021/06/07 08:58:10;;;;;;;31.50;28.50;;;20.00;99.90;;;;;;5022750;28;20450;-81
2021/06/07 09:00:42;;;;;;;29.60;26.67;;;20.10;99.90;;;;;;5033680;28;20464;-83
2021/06/07 09:03:14;;;;;;;31.93;28.77;;;20.10;99.90;;;;;;5032879;28;20432;-82
2021/06/07 09:05:42;;;;;;;29.33;26.63;;;20.00;99.90;;;;;;5006408;28;20439;-82
2021/06/07 09:08:16;;;;;;;28.97;26.17;;;20.10;99.90;;;;;;5024623;28;20500;-82
2021/06/07 09:10:48;;;;;;;28.30;25.43;;;20.10;99.90;;;;;;5038436;28;20443;-82
2021/06/07 09:13:17;;;;;;;25.93;23.57;;;20.10;99.90;;;;;;5021490;28;20485;-83
2021/06/07 09:15:49;;;;;;;25.57;23.20;;;20.10;99.90;;;;;;5034373;28;20424;-88
2021/06/07 09:18:34;;;;;;;26.10;23.77;;;20.20;99.90;;;;;;5006396;28;20464;-84
2021/06/07 09:21:16;;;;;;;21.53;19.50;;;20.20;99.90;;;;;;5016887;28;20439;-83
2021/06/07 09:23:45;;;;;;;21.20;19.13;;;20.20;99.90;;;;;;5032556;28;20436;-83
2021/06/07 09:26:35;;;;;;;19.50;17.63;;;20.20;99.90;;;;;;5031519;28;20540;-82
2021/06/07 09:29:29;;;;;;;19.57;17.67;;;20.10;99.90;;;;;;5017792;28;20468;-83
2021/06/07 09:31:59;;;;;;;19.33;17.63;;;20.20;99.90;;;;;;5033328;28;20436;-83
2021/06/07 09:34:30;;;;;;;18.00;16.27;;;20.30;99.90;;;;;;5048234;28;20478;-84
2021/06/07 09:37:04;;;;;;;18.10;16.50;;;20.30;99.90;;;;;;5020842;28;20442;-83
2021/06/07 09:39:38;;;;;;;16.23;14.73;;;20.40;99.90;;;;;;5022208;28;20432;-83
2021/06/07 09:42:12;;;;;;;16.37;14.87;;;20.50;99.90;;;;;;5032240;28;20448;-83
2021/06/07 09:44:45;;;;;;;17.47;15.97;;;20.70;99.90;;;;;;5033904;28;20782;-83
2021/06/07 09:47:27;;;;;;;18.47;16.77;;;20.90;99.90;;;;;;5020885;28;20431;-83
2021/06/07 09:49:57;;;;;;;16.30;14.60;;;20.90;99.90;;;;;;5016512;28;20460;-83
2021/06/07 09:52:29;;;;;;;16.17;14.57;;;20.90;99.90;;;;;;5051235;28;20431;-83
2021/06/07 09:55:17;;;;;;;14.60;13.30;;;21.00;99.90;;;;;;5040517;28;20477;-83
2021/06/07 09:57:55;;;;;;;15.40;13.97;;;21.00;99.90;;;;;;5034523;28;20524;-83
2021/06/07 10:00:41;;;;;;;14.33;12.93;;;20.90;99.90;;;;;;5032587;28;20511;-82
2021/06/07 10:03:27;;;;;;;15.60;14.30;;;20.90;99.90;;;;;;5032978;28;20470;-82
2021/06/07 10:06:15;;;;;;;13.93;12.63;;;20.80;99.90;;;;;;5022856;28;20458;-82
2021/06/07 10:08:50;;;;;;;16.13;14.80;;;20.80;99.90;;;;;;5032850;28;20782;-83
2021/06/07 10:11:19;;;;;;;18.27;13.90;;;20.90;99.90;;;;;;5032725;28;20488;-82
2021/06/07 10:13:45;;;;;;;14.90;13.70;;;20.90;99.90;;;;;;5031892;28;20476;-83
2021/06/07 10:16:14;;;;;;;15.20;13.70;;;20.90;99.90;;;;;;5032038;28;20431;-82
2021/06/07 10:18:41;;;;;;;15.27;13.93;;;20.70;99.90;;;;;;5032213;28;20420;-82
2021/06/07 10:21:10;;;;;;;16.90;15.40;;;20.60;99.90;;;;;;5026115;28;20441;-83
2021/06/07 10:23:37;;;;;;;15.57;13.97;;;20.50;99.90;;;;;;5036981;28;20462;-81
2021/06/07 10:26:05;;;;;;;14.97;13.67;;;20.40;99.90;;;;;;5032042;28;20928;-82
2021/06/07 10:28:41;;;;;;;16.70;15.10;;;20.30;99.90;;;;;;5015385;28;20428;-84
2021/06/07 10:31:17;;;;;;;15.70;14.07;;;20.30;99.90;;;;;;5011534;28;20439;-82
2021/06/07 10:34:01;;;;;;;15.30;13.90;;;20.30;99.90;;;;;;5045162;28;20881;-82
2021/06/07 10:36:38;;;;;;;17.40;15.93;;;20.40;99.90;;;;;;5038766;28;20423;-83
2021/06/07 10:39:13;;;;;;;15.60;14.30;;;20.60;99.90;;;;;;5037998;28;20947;-81
2021/06/07 10:41:44;;;;;;;15.60;14.30;;;20.70;99.90;;;;;;5032170;28;21008;-81
2021/06/07 10:44:10;;;;;;;14.53;12.97;;;20.50;99.90;;;;;;5034291;28;20431;-80
2021/06/07 10:46:38;;;;;;;13.60;12.40;;;20.60;99.90;;;;;;5032761;28;20435;-81
2021/06/07 10:49:41;;;;;;;15.00;13.80;;;20.70;99.90;;;;;;5018277;28;20456;-81
2021/06/07 10:52:18;;;;;;;14.30;13.10;;;20.70;99.90;;;;;;4955478;28;20444;-80
2021/06/07 10:54:56;;;;;;;14.50;13.20;;;20.70;99.90;;;;;;5022809;28;20473;-80
2021/06/07 10:57:22;;;;;;;15.73;14.10;;;20.80;99.90;;;;;;5032451;28;20436;-81
2021/06/07 10:59:53;;;;;;;14.80;13.43;;;20.70;99.90;;;;;;5027535;28;20435;-80
2021/06/07 11:02:22;;;;;;;14.47;13.00;;;20.60;99.90;;;;;;5032619;28;20419;-79
2021/06/07 11:05:08;;;;;;;13.80;12.50;;;20.50;99.90;;;;;;5028371;28;20850;-79
2021/06/07 11:07:36;;;;;;;14.10;12.70;;;20.40;99.90;;;;;;5037266;28;20489;-80
2021/06/07 11:10:11;;;;;;;13.50;12.37;;;20.40;99.90;;;;;;5032055;28;20877;-79
2021/06/07 11:12:42;;;;;;;13.37;12.20;;;20.30;99.90;;;;;;5040152;28;20953;-81
2021/06/07 11:15:36;;;;;;;13.80;12.40;;;20.30;99.90;;;;;;5013725;28;20493;-82
2021/06/07 11:18:27;;;;;;;13.07;11.97;;;20.20;99.90;;;;;;4983167;28;20439;-80
2021/06/07 11:21:08;;;;;;;14.37;13.00;;;20.20;99.90;;;;;;5031119;28;20468;-79
2021/06/07 11:23:35;;;;;;;13.20;11.90;;;20.10;99.90;;;;;;5006564;28;20432;-79
2021/06/07 11:26:03;;;;;;;14.70;12.47;;;20.10;99.90;;;;;;5018269;28;20430;-79
2021/06/07 11:28:44;;;;;;;14.10;12.70;;;20.00;99.90;;;;;;4990167;28;20439;-78
2021/06/07 11:31:21;;;;;;;14.27;12.83;;;20.00;99.90;;;;;;5024469;28;20488;-78
2021/06/07 11:33:55;;;;;;;14.17;12.50;;;19.90;99.90;;;;;;5039644;28;20868;-80
2021/06/07 11:36:39;;;;;;;13.10;11.80;;;19.90;99.90;;;;;;5053590;28;20443;-80
2021/06/07 11:39:17;;;;;;;13.77;12.27;;;20.00;99.90;;;;;;5046095;28;20435;-79
2021/06/07 11:41:54;;;;;;;13.27;11.87;;;20.00;99.90;;;;;;5061021;28;20445;-79
2021/06/07 11:44:50;;;;;;;13.40;12.30;;;20.10;99.90;;;;;;5051769;28;20433;-79
2021/06/07 11:47:42;;;;;;;13.90;12.60;;;20.10;99.90;;;;;;5049000;28;20495;-79
2021/06/07 11:50:17;;;;;;;14.10;12.90;;;20.10;99.90;;;;;;5033887;28;20953;-79
2021/06/07 11:52:54;;;;;;;16.40;13.27;;;20.10;99.90;;;;;;5051704;28;20899;-79
2021/06/07 11:55:27;;;;;;;14.00;12.60;;;20.10;99.90;;;;;;5053473;28;20446;-78
2021/06/07 11:58:10;;;;;;;14.17;12.77;;;20.20;99.90;;;;;;5033678;28;20449;-79
2021/06/07 12:00:47;;;;;;;12.50;11.33;;;20.10;99.90;;;;;;5064285;28;20450;-79
2021/06/07 12:03:27;;;;;;;12.80;11.70;;;20.20;99.90;;;;;;5017340;28;20770;-81
2021/06/07 12:05:56;;;;;;;11.90;10.77;;;20.20;99.90;;;;;;5064576;28;20440;-81
2021/06/07 12:08:25;;;;;;;10.93;10.03;;;20.20;99.90;;;;;;5032792;28;20449;-81
2021/06/07 12:10:58;;;;;;;10.97;10.07;;;20.20;99.90;;;;;;5031257;28;21038;-81
2021/06/07 12:13:24;;;;;;;15.27;11.37;;;20.20;99.90;;;;;;5037548;28;20465;-82
2021/06/07 12:16:06;;;;;;;10.67;9.47;;;20.20;99.90;;;;;;5058377;28;20429;-80
2021/06/07 12:18:48;;;;;;;11.77;9.80;;;20.30;99.90;;;;;;5033237;28;20426;-82
2021/06/07 12:21:28;;;;;;;10.70;9.90;;;20.40;99.90;;;;;;5060712;28;20428;-81
2021/06/07 12:24:05;;;;;;;11.20;9.70;;;20.40;99.90;;;;;;5058127;28;20539;-81
2021/06/07 12:29:22;;;;;;;9.03;8.40;;;20.30;99.90;;;;;;5054854;28;20438;-80
2021/06/07 12:32:02;;;;;;;10.77;9.97;;;20.50;99.90;;;;;;5053548;28;20469;-82
2021/06/07 12:34:28;;;;;;;10.00;9.13;;;20.50;99.90;;;;;;5024264;28;20828;-81
2021/06/07 12:36:56;;;;;;;10.10;9.30;;;20.50;99.90;;;;;;5023360;28;20442;-80
2021/06/07 12:39:27;;;;;;;9.80;9.10;;;20.50;99.90;;;;;;5025472;28;20833;-80
2021/06/07 12:41:56;;;;;;;10.40;9.43;;;20.50;99.90;;;;;;5021456;28;20455;-80
2021/06/07 12:44:26;;;;;;;9.97;9.23;;;20.50;99.90;;;;;;5033750;28;20440;-82
2021/06/07 12:46:55;;;;;;;9.20;8.50;;;20.60;99.90;;;;;;5033902;28;20989;-80